createdAt,value
2022-12-11T00:01:17.901Z,71.62
2022-12-11T00:03:44.950Z,71.34
2022-12-11T00:06:15.046Z,70.76
2022-12-11T00:08:42.633Z,70.50
2022-12-11T00:11:13.305Z,70.30
2022-12-11T00:13:40.304Z,70.37
2022-12-11T00:16:07.838Z,70.24
2022-12-11T00:18:37.493Z,69.96
2022-12-11T00:21:07.778Z,70.16
2022-12-11T00:23:37.413Z,69.67
2022-12-11T00:26:14.536Z,69.82
2022-12-11T00:28:45.717Z,69.80
2022-12-11T00:31:18.768Z,70.00
2022-12-11T00:33:49.082Z,70.68
2022-12-11T00:36:27.036Z,71.97
2022-12-11T00:38:54.874Z,71.24
2022-12-11T00:41:22.299Z,70.96
2022-12-11T00:43:49.290Z,70.56
2022-12-11T00:46:20.730Z,70.37
2022-12-11T00:48:50.142Z,70.29
2022-12-11T00:51:20.289Z,70.00
2022-12-11T00:53:49.281Z,70.34
2022-12-11T00:56:20.695Z,70.51
2022-12-11T00:58:49.265Z,70.94
2022-12-11T01:01:21.102Z,71.01
2022-12-11T01:03:53.433Z,70.29
2022-12-11T01:06:25.941Z,70.85
2022-12-11T01:09:11.693Z,70.43
2022-12-11T01:11:39.496Z,69.55
2022-12-11T01:14:07.479Z,70.06
2022-12-11T01:16:34.378Z,71.06
2022-12-11T01:19:03.769Z,70.85
2022-12-11T01:21:33.295Z,70.90
2022-12-11T01:24:00.305Z,70.54
2022-12-11T01:26:30.655Z,70.18
2022-12-11T01:28:57.565Z,69.88
2022-12-11T01:31:25.039Z,70.02
2022-12-11T01:33:55.911Z,71.02
2022-12-11T01:36:23.930Z,71.27
2022-12-11T01:38:51.935Z,71.26
2022-12-11T01:41:19.605Z,70.73
2022-12-11T01:44:16.412Z,70.83
2022-12-11T01:46:44.017Z,70.32
2022-12-11T01:49:14.230Z,69.18
2022-12-11T01:51:52.018Z,69.89
2022-12-11T01:54:26.439Z,69.69
2022-12-11T01:56:57.639Z,69.90
2022-12-11T01:59:27.821Z,69.46
2022-12-11T02:02:02.287Z,69.97
2022-12-11T02:04:33.860Z,69.24
2022-12-11T02:07:01.024Z,69.52
2022-12-11T02:09:33.643Z,69.46
2022-12-11T02:12:29.084Z,70.10
2022-12-11T02:15:34.329Z,69.88
2022-12-11T02:18:29.425Z,70.32
2022-12-11T02:21:12.201Z,70.34
2022-12-11T02:24:21.448Z,70.82
2022-12-11T02:27:20.600Z,69.86
2022-12-11T02:30:02.904Z,69.66
2022-12-11T02:32:55.083Z,68.98
2022-12-11T02:35:39.541Z,68.99
2022-12-11T02:38:15.763Z,69.29
2022-12-11T02:40:44.849Z,69.22
2022-12-11T02:43:15.091Z,67.56
2022-12-11T02:45:43.792Z,68.53
2022-12-11T02:48:13.607Z,67.43
2022-12-11T02:50:47.060Z,66.78
2022-12-11T02:53:20.905Z,66.80
2022-12-11T02:55:53.553Z,67.84
2022-12-11T02:58:27.792Z,68.74
2022-12-11T03:00:55.129Z,67.79
2022-12-11T03:03:23.340Z,67.87
2022-12-11T03:05:50.883Z,65.57
2022-12-11T03:08:20.866Z,65.51
2022-12-11T03:10:47.963Z,66.35
2022-12-11T03:13:22.172Z,66.99
2022-12-11T03:16:32.550Z,66.79
2022-12-11T03:19:16.650Z,66.56
2022-12-11T03:22:05.216Z,67.49
2022-12-11T03:24:55.520Z,66.10
2022-12-11T03:27:37.120Z,65.64
2022-12-11T03:30:16.788Z,65.16
2022-12-11T03:33:30.116Z,65.08
2022-12-11T03:36:07.280Z,64.09
2022-12-11T03:38:53.277Z,64.66
2022-12-11T03:41:25.070Z,63.79
2022-12-11T03:43:58.749Z,63.81
2022-12-11T03:46:34.271Z,64.67
2022-12-11T03:49:26.343Z,65.14
2022-12-11T03:51:57.617Z,65.58
2022-12-11T03:54:34.111Z,65.48
2022-12-11T03:57:07.890Z,64.92
2022-12-11T03:59:35.546Z,65.02
2022-12-11T04:02:11.001Z,64.69
2022-12-11T04:04:40.485Z,65.17
2022-12-11T04:07:09.516Z,65.53
2022-12-11T04:09:37.440Z,65.20
2022-12-11T04:12:05.063Z,65.60
2022-12-11T04:14:51.535Z,64.48
2022-12-11T04:17:38.768Z,64.42
2022-12-11T04:20:26.332Z,65.19
2022-12-11T04:23:15.905Z,65.34
2022-12-11T04:25:43.885Z,65.45
2022-12-11T04:28:14.110Z,65.03
2022-12-11T04:30:42.148Z,64.52
2022-12-11T04:33:09.684Z,64.90
2022-12-11T04:35:36.950Z,65.97
2022-12-11T04:38:04.713Z,66.10
2022-12-11T04:40:32.478Z,65.22
2022-12-11T04:43:02.615Z,65.22
2022-12-11T04:45:29.969Z,65.12
2022-12-11T04:48:02.604Z,65.15
2022-12-11T04:50:30.185Z,64.71
2022-12-11T04:52:58.002Z,63.93
2022-12-11T04:55:25.469Z,64.33
2022-12-11T04:57:52.975Z,64.64
2022-12-11T05:00:23.311Z,64.98
2022-12-11T05:02:51.044Z,66.38
2022-12-11T05:05:18.404Z,65.87
2022-12-11T05:07:45.898Z,65.89
2022-12-11T05:10:16.345Z,65.82
2022-12-11T05:12:43.746Z,66.98
2022-12-11T05:15:11.640Z,67.90
2022-12-11T05:17:40.190Z,68.63
2022-12-11T05:20:08.464Z,67.81
2022-12-11T05:22:35.798Z,68.28
2022-12-11T05:25:04.987Z,67.94
2022-12-11T05:27:34.722Z,67.60
2022-12-11T05:30:02.162Z,68.33
2022-12-11T05:32:29.667Z,67.18
2022-12-11T05:34:57.194Z,68.37
2022-12-11T05:37:24.742Z,67.55
2022-12-11T05:39:52.134Z,68.17
2022-12-11T05:42:22.892Z,67.69
2022-12-11T05:44:58.807Z,68.85
2022-12-11T05:47:26.272Z,69.09
2022-12-11T05:49:53.627Z,69.54
2022-12-11T05:52:21.865Z,69.99
2022-12-11T05:54:50.771Z,69.60
2022-12-11T05:57:18.459Z,68.60
2022-12-11T05:59:46.172Z,69.04
2022-12-11T06:02:13.548Z,69.13
2022-12-11T06:04:41.062Z,68.51
2022-12-11T06:07:08.379Z,68.69
2022-12-11T06:09:35.818Z,69.31
2022-12-11T06:12:03.321Z,69.51
2022-12-11T06:14:30.637Z,68.71
2022-12-11T06:16:57.867Z,69.59
2022-12-11T06:19:25.097Z,69.66
2022-12-11T06:21:52.345Z,69.20
2022-12-11T06:24:21.419Z,69.02
2022-12-11T06:26:51.208Z,68.80
2022-12-11T06:29:18.462Z,69.08
2022-12-11T06:31:50.246Z,68.89
2022-12-11T06:34:17.666Z,68.17
2022-12-11T06:36:47.250Z,68.86
2022-12-11T06:39:14.845Z,68.18
2022-12-11T06:41:41.939Z,68.26
2022-12-11T06:44:12.000Z,68.16
2022-12-11T06:46:39.367Z,68.60
2022-12-11T06:49:09.063Z,69.41
2022-12-11T06:51:39.176Z,70.44
2022-12-11T06:54:06.675Z,70.69
2022-12-11T06:56:36.333Z,71.11
2022-12-11T06:59:07.338Z,70.66
2022-12-11T07:01:34.927Z,70.51
2022-12-11T07:04:02.100Z,70.56
2022-12-11T07:06:29.777Z,71.23
2022-12-11T07:08:57.135Z,71.32
2022-12-11T07:11:24.376Z,71.41
2022-12-11T07:13:54.062Z,71.74
2022-12-11T07:16:21.863Z,72.02
2022-12-11T07:18:51.199Z,72.18
2022-12-11T07:21:20.343Z,72.23
2022-12-11T07:23:48.797Z,72.06
2022-12-11T07:26:20.391Z,72.74
2022-12-11T07:28:47.842Z,72.47
2022-12-11T07:31:26.461Z,71.24
2022-12-11T07:34:06.821Z,71.23
2022-12-11T07:36:35.405Z,71.05
2022-12-11T07:39:05.163Z,71.14
2022-12-11T07:41:32.268Z,71.12
2022-12-11T07:44:05.137Z,70.67
2022-12-11T07:46:34.267Z,70.41
2022-12-11T07:49:02.851Z,70.37
2022-12-11T07:51:36.469Z,70.97
2022-12-11T07:54:08.676Z,70.71
2022-12-11T07:56:36.310Z,69.94
2022-12-11T07:59:05.515Z,67.07
2022-12-11T08:01:36.870Z,64.54
2022-12-11T08:04:07.307Z,64.13
2022-12-11T08:06:40.963Z,60.16
2022-12-11T08:09:20.683Z,58.53
2022-12-11T08:11:58.926Z,55.46
2022-12-11T08:14:26.287Z,52.51
2022-12-11T08:16:54.005Z,51.69
2022-12-11T08:19:22.898Z,50.90
2022-12-11T08:21:50.091Z,49.75
2022-12-11T08:24:20.920Z,48.27
2022-12-11T08:26:51.883Z,47.45
2022-12-11T08:29:19.055Z,46.23
2022-12-11T08:31:46.698Z,44.45
2022-12-11T08:34:14.301Z,42.25
2022-12-11T08:36:45.178Z,40.36
2022-12-11T08:39:12.746Z,39.59
2022-12-11T08:41:40.115Z,38.07
2022-12-11T08:44:16.677Z,37.26
2022-12-11T08:46:45.099Z,36.63
2022-12-11T08:49:15.363Z,35.48
2022-12-11T08:51:42.704Z,34.15
2022-12-11T08:54:11.188Z,33.13
2022-12-11T08:56:41.254Z,33.16
2022-12-11T08:59:08.866Z,33.45
2022-12-11T09:01:36.256Z,33.00
2022-12-11T09:04:04.196Z,32.32
2022-12-11T09:06:33.479Z,32.50
2022-12-11T09:09:02.793Z,31.59
2022-12-11T09:11:34.294Z,30.58
2022-12-11T09:14:07.120Z,31.36
2022-12-11T09:16:40.870Z,30.59
2022-12-11T09:19:14.597Z,30.25
2022-12-11T09:21:43.525Z,29.28
2022-12-11T09:24:12.558Z,28.68
2022-12-11T09:26:40.708Z,28.05
2022-12-11T09:29:08.529Z,27.83
2022-12-11T09:31:37.229Z,27.72
2022-12-11T09:34:08.814Z,26.99
2022-12-11T09:36:38.808Z,26.08
2022-12-11T09:39:08.573Z,25.68
2022-12-11T09:41:49.364Z,25.41
2022-12-11T09:44:34.542Z,24.42
2022-12-11T09:47:02.339Z,24.38
2022-12-11T09:49:42.632Z,24.54
2022-12-11T09:52:35.680Z,24.86
2022-12-11T09:55:25.691Z,24.29
2022-12-11T09:58:04.076Z,23.11
2022-12-11T10:01:10.962Z,22.29
2022-12-11T10:04:00.049Z,22.59
2022-12-11T10:06:46.852Z,22.70
2022-12-11T10:09:39.528Z,22.61
2022-12-11T10:12:21.195Z,22.52
2022-12-11T10:15:14.730Z,21.09
2022-12-11T10:17:44.922Z,21.03
2022-12-11T10:20:50.653Z,21.45
2022-12-11T10:23:24.670Z,21.07
2022-12-11T10:26:17.297Z,24.74
2022-12-11T10:28:47.039Z,29.16
2022-12-11T10:31:40.465Z,33.16
2022-12-11T10:34:16.340Z,35.45
2022-12-11T10:36:44.144Z,36.68
2022-12-11T10:39:22.622Z,40.10
2022-12-11T10:41:56.336Z,41.62
2022-12-11T10:44:25.906Z,39.38
2022-12-11T10:47:10.825Z,33.02
2022-12-11T10:49:43.753Z,29.71
2022-12-11T10:52:37.688Z,26.81
2022-12-11T10:55:29.001Z,27.08
2022-12-11T10:58:05.951Z,26.12
2022-12-11T11:00:37.892Z,24.23
2022-12-11T11:03:27.278Z,24.20
2022-12-11T11:06:19.528Z,23.25
2022-12-11T11:08:56.498Z,22.12
2022-12-11T11:11:25.876Z,22.53
2022-12-11T11:14:05.322Z,22.53
2022-12-11T11:16:37.190Z,22.10
2022-12-11T11:19:07.444Z,22.62
2022-12-11T11:21:36.184Z,21.72
2022-12-11T11:24:04.896Z,20.52
2022-12-11T11:27:11.158Z,22.43
2022-12-11T11:29:33.214Z,20.68
2022-12-11T11:32:17.812Z,20.99
2022-12-11T11:34:45.031Z,20.71
2022-12-11T11:37:35.767Z,20.44
2022-12-11T11:40:13.965Z,21.09
2022-12-11T11:43:21.033Z,22.07
2022-12-11T11:46:10.094Z,22.91
2022-12-11T11:49:00.829Z,22.61
2022-12-11T11:51:35.262Z,21.63
2022-12-11T11:54:20.336Z,21.91
2022-12-11T11:56:50.689Z,21.49
2022-12-11T11:59:44.259Z,22.57
2022-12-11T12:02:17.937Z,23.96
2022-12-11T12:04:51.445Z,23.36
2022-12-11T12:07:33.749Z,24.17
2022-12-11T12:10:35.193Z,22.93
2022-12-11T12:13:48.071Z,22.96
2022-12-11T12:16:53.119Z,23.59
2022-12-11T12:20:16.689Z,24.73
2022-12-11T12:23:03.710Z,24.80
2022-12-11T12:25:42.825Z,24.34
2022-12-11T12:29:14.888Z,24.02
2022-12-11T12:32:25.994Z,25.80
2022-12-11T12:35:11.561Z,27.80
2022-12-11T12:37:53.623Z,29.71
2022-12-11T12:40:55.783Z,32.79
2022-12-11T12:44:00.544Z,35.33
2022-12-11T12:46:57.950Z,38.15
2022-12-11T12:49:48.995Z,39.76
2022-12-11T12:52:40.761Z,41.75
2022-12-11T12:55:29.842Z,41.83
2022-12-11T12:58:04.337Z,43.27
2022-12-11T13:00:38.200Z,44.99
2022-12-11T13:03:30.521Z,45.98
2022-12-11T13:06:06.286Z,46.44
2022-12-11T13:08:48.208Z,46.11
2022-12-11T13:11:19.061Z,47.50
2022-12-11T13:14:18.827Z,47.69
2022-12-11T13:16:51.065Z,48.44
2022-12-11T13:19:24.190Z,49.26
2022-12-11T13:22:02.749Z,49.69
2022-12-11T13:24:35.501Z,49.96
2022-12-11T13:27:24.974Z,50.45
2022-12-11T13:30:04.822Z,51.57
2022-12-11T13:32:32.654Z,50.90
2022-12-11T13:35:07.260Z,50.27
2022-12-11T13:37:40.133Z,50.48
2022-12-11T13:40:18.002Z,51.04
2022-12-11T13:42:54.866Z,51.03
2022-12-11T13:45:31.307Z,52.99
2022-12-11T13:48:00.251Z,53.21
2022-12-11T13:50:33.405Z,52.74
2022-12-11T13:53:02.951Z,51.73
2022-12-11T13:55:35.454Z,51.49
2022-12-11T13:58:03.023Z,50.92
2022-12-11T14:00:34.577Z,51.35
2022-12-11T14:03:08.614Z,51.82
2022-12-11T14:05:36.816Z,51.28
2022-12-11T14:08:11.985Z,51.42
2022-12-11T14:10:41.805Z,51.09
2022-12-11T14:13:27.242Z,49.97
2022-12-11T14:15:55.595Z,51.74
2022-12-11T14:18:28.116Z,52.87
2022-12-11T14:20:58.711Z,52.96
2022-12-11T14:23:30.236Z,53.04
2022-12-11T14:26:01.904Z,53.09
2022-12-11T14:28:37.907Z,53.83
2022-12-11T14:31:06.385Z,53.78
2022-12-11T14:33:43.479Z,53.71
2022-12-11T14:36:11.604Z,53.50
2022-12-11T14:38:47.918Z,53.12
2022-12-11T14:41:31.569Z,53.01
2022-12-11T14:44:03.084Z,53.21
2022-12-11T14:46:46.926Z,53.89
2022-12-11T14:49:39.139Z,54.28
2022-12-11T14:52:22.767Z,55.19
2022-12-11T14:55:07.330Z,55.41
2022-12-11T14:57:36.344Z,54.64
2022-12-11T15:00:06.299Z,54.73
2022-12-11T15:02:36.728Z,55.15
2022-12-11T15:05:20.418Z,55.95
2022-12-11T15:08:10.611Z,56.01
2022-12-11T15:10:43.290Z,57.45
2022-12-11T15:13:10.948Z,56.56
2022-12-11T15:15:47.679Z,57.05
2022-12-11T15:18:28.314Z,57.01
2022-12-11T15:21:10.376Z,57.52
2022-12-11T15:23:53.431Z,58.13
2022-12-11T15:26:59.919Z,58.24
2022-12-11T15:29:40.205Z,58.18
2022-12-11T15:32:14.432Z,58.06
2022-12-11T15:35:24.285Z,58.81
2022-12-11T15:37:57.560Z,58.73
2022-12-11T15:40:28.093Z,58.74
2022-12-11T15:42:56.635Z,59.44
2022-12-11T15:45:29.238Z,59.02
2022-12-11T15:47:57.559Z,59.30
2022-12-11T15:50:31.845Z,59.30
2022-12-11T15:52:59.116Z,59.64
2022-12-11T15:55:27.790Z,59.64
2022-12-11T15:58:00.074Z,60.02
2022-12-11T16:00:28.345Z,60.01
2022-12-11T16:02:58.912Z,60.73
2022-12-11T16:05:27.309Z,60.28
2022-12-11T16:07:57.138Z,61.05
2022-12-11T16:10:24.536Z,60.83
2022-12-11T16:12:51.751Z,61.53
2022-12-11T16:15:23.418Z,60.58
2022-12-11T16:18:00.001Z,61.24
2022-12-11T16:20:27.483Z,61.04
2022-12-11T16:22:56.750Z,60.77
2022-12-11T16:25:25.086Z,60.81
2022-12-11T16:27:55.233Z,60.88
2022-12-11T16:30:22.898Z,60.95
2022-12-11T16:32:51.218Z,61.98
2022-12-11T16:35:19.591Z,62.18
2022-12-11T16:37:53.334Z,61.99
2022-12-11T16:40:22.203Z,62.32
2022-12-11T16:42:49.979Z,61.46
2022-12-11T16:45:25.486Z,61.85
2022-12-11T16:47:53.473Z,62.12
2022-12-11T16:50:20.990Z,62.25
2022-12-11T16:52:48.192Z,62.42
2022-12-11T16:55:15.864Z,62.36
2022-12-11T16:57:43.138Z,61.83
2022-12-11T17:00:13.940Z,61.99
2022-12-11T17:02:43.836Z,61.00
2022-12-11T17:05:11.299Z,61.70
2022-12-11T17:07:38.643Z,61.70
2022-12-11T17:10:06.096Z,62.02
2022-12-11T17:12:33.037Z,61.86
2022-12-11T17:15:01.166Z,61.43
2022-12-11T17:17:28.223Z,61.51
2022-12-11T17:19:57.261Z,61.70
2022-12-11T17:22:24.175Z,62.33
2022-12-11T17:24:51.146Z,62.58
2022-12-11T17:27:18.067Z,62.15
2022-12-11T17:29:44.976Z,62.05
2022-12-11T17:32:11.861Z,62.46
2022-12-11T17:34:41.269Z,62.98
2022-12-11T17:37:08.235Z,62.40
2022-12-11T17:39:37.701Z,63.96
2022-12-11T17:42:07.179Z,64.30
2022-12-11T17:44:34.566Z,63.39
2022-12-11T17:47:06.086Z,63.40
2022-12-11T17:49:36.153Z,63.52
2022-12-11T17:52:03.491Z,63.24
2022-12-11T17:54:32.488Z,63.95
2022-12-11T17:57:00.197Z,64.74
2022-12-11T17:59:27.037Z,63.92
2022-12-11T18:01:56.021Z,63.61
2022-12-11T18:04:22.927Z,63.83
2022-12-11T18:06:49.793Z,64.46
2022-12-11T18:09:19.198Z,63.46
2022-12-11T18:11:46.045Z,64.31
2022-12-11T18:14:17.068Z,63.78
2022-12-11T18:16:44.521Z,64.50
2022-12-11T18:19:11.567Z,65.03
2022-12-11T18:21:45.706Z,65.12
2022-12-11T18:24:12.669Z,64.63
2022-12-11T18:26:40.254Z,64.48
2022-12-11T18:29:14.159Z,72.24
2022-12-11T18:31:43.708Z,70.60
2022-12-11T18:34:11.116Z,65.72
2022-12-11T18:36:38.171Z,64.29
2022-12-11T18:39:05.072Z,63.84
2022-12-11T18:41:34.048Z,63.43
2022-12-11T18:44:09.276Z,62.64
2022-12-11T18:46:41.591Z,63.32
2022-12-11T18:49:11.044Z,63.69
2022-12-11T18:51:37.887Z,64.33
2022-12-11T18:54:04.811Z,64.38
2022-12-11T18:56:34.672Z,62.32
2022-12-11T18:59:05.113Z,62.27
2022-12-11T19:01:34.604Z,62.28
2022-12-11T19:04:06.518Z,61.13
2022-12-11T19:06:36.305Z,60.90
2022-12-11T19:09:06.120Z,61.75
2022-12-11T19:11:34.901Z,62.24
2022-12-11T19:14:07.269Z,63.63
2022-12-11T19:16:38.457Z,64.28
2022-12-11T19:19:20.958Z,65.86
2022-12-11T19:21:51.503Z,64.01
2022-12-11T19:24:26.004Z,63.39
2022-12-11T19:26:52.967Z,63.46
2022-12-11T19:29:27.306Z,64.16
2022-12-11T19:31:55.644Z,63.16
2022-12-11T19:34:25.665Z,64.29
2022-12-11T19:36:53.637Z,64.14
2022-12-11T19:39:20.921Z,62.99
2022-12-11T19:41:48.554Z,62.72
2022-12-11T19:44:18.288Z,63.44
2022-12-11T19:46:47.567Z,63.77
2022-12-11T19:49:17.213Z,63.55
2022-12-11T19:51:46.643Z,63.63
2022-12-11T19:54:17.262Z,63.42
2022-12-11T19:56:45.054Z,63.69
2022-12-11T19:59:17.806Z,63.60
2022-12-11T20:01:48.371Z,63.66
2022-12-11T20:04:17.369Z,63.93
2022-12-11T20:06:46.261Z,63.60
2022-12-11T20:09:18.788Z,63.66
2022-12-11T20:11:46.026Z,63.14
2022-12-11T20:14:25.422Z,63.56
2022-12-11T20:17:10.907Z,64.36
2022-12-11T20:19:41.972Z,63.66
2022-12-11T20:22:09.470Z,63.13
2022-12-11T20:24:36.812Z,63.72
2022-12-11T20:27:03.855Z,63.38
2022-12-11T20:29:31.076Z,63.58
2022-12-11T20:31:59.783Z,64.81
2022-12-11T20:34:30.184Z,63.72
2022-12-11T20:36:57.130Z,64.82
2022-12-11T20:39:27.094Z,64.74
2022-12-11T20:41:54.008Z,64.69
2022-12-11T20:44:23.967Z,65.29
2022-12-11T20:46:50.916Z,64.70
2022-12-11T20:49:22.468Z,65.63
2022-12-11T20:51:51.863Z,65.78
2022-12-11T20:54:18.777Z,65.88
2022-12-11T20:56:45.889Z,65.74
2022-12-11T20:59:15.054Z,65.28
2022-12-11T21:01:42.049Z,65.41
2022-12-11T21:04:12.006Z,65.58
2022-12-11T21:06:40.627Z,65.32
2022-12-11T21:09:13.551Z,65.35
2022-12-11T21:11:40.656Z,65.19
2022-12-11T21:14:10.226Z,65.71
2022-12-11T21:16:37.956Z,65.89
2022-12-11T21:19:06.186Z,65.44
2022-12-11T21:21:39.709Z,65.32
2022-12-11T21:24:28.498Z,64.75
2022-12-11T21:26:58.049Z,65.81
2022-12-11T21:29:29.270Z,66.17
2022-12-11T21:31:59.301Z,65.98
2022-12-11T21:34:33.535Z,65.71
2022-12-11T21:37:02.456Z,64.95
2022-12-11T21:39:38.795Z,65.10
2022-12-11T21:42:06.107Z,64.95
2022-12-11T21:47:24.672Z,65.20
2022-12-11T21:49:51.657Z,64.74
2022-12-11T21:52:18.720Z,65.27
2022-12-11T21:54:48.491Z,65.39
2022-12-11T21:57:15.515Z,66.06
2022-12-11T21:59:42.651Z,65.31
2022-12-11T22:02:16.149Z,65.41
2022-12-11T22:04:47.994Z,65.43
2022-12-11T22:07:16.202Z,65.62
2022-12-11T22:09:43.327Z,65.38
2022-12-11T22:12:24.967Z,64.70
2022-12-11T22:14:52.265Z,64.69
2022-12-11T22:17:19.435Z,65.03
2022-12-11T22:19:46.647Z,65.96
2022-12-11T22:22:15.729Z,66.06
2022-12-11T22:24:47.816Z,65.81
2022-12-11T22:27:21.953Z,66.11
2022-12-11T22:29:50.416Z,66.16
2022-12-11T22:32:22.248Z,66.32
2022-12-11T22:34:49.223Z,66.10
2022-12-11T22:37:16.097Z,66.11
2022-12-11T22:39:43.011Z,66.69
2022-12-11T22:42:09.891Z,67.82
2022-12-11T22:44:42.190Z,66.50
2022-12-11T22:47:09.049Z,67.85
2022-12-11T22:49:38.894Z,67.31
2022-12-11T22:52:10.684Z,67.41
2022-12-11T22:54:44.207Z,67.62
2022-12-11T22:57:11.057Z,67.40
2022-12-11T22:59:40.909Z,67.61
2022-12-11T23:02:07.916Z,67.87
2022-12-11T23:04:36.902Z,67.73
2022-12-11T23:07:06.748Z,67.59
2022-12-11T23:09:33.972Z,68.47
2022-12-11T23:12:03.292Z,68.36
2022-12-11T23:14:30.201Z,68.08
2022-12-11T23:16:57.139Z,67.50
2022-12-11T23:19:26.480Z,67.38
2022-12-11T23:21:53.560Z,67.51
2022-12-11T23:24:20.808Z,68.16
2022-12-11T23:26:50.112Z,68.10
2022-12-11T23:29:19.309Z,68.98
2022-12-11T23:31:48.975Z,68.82
2022-12-11T23:34:18.906Z,68.19
2022-12-11T23:36:45.846Z,68.14
2022-12-11T23:39:12.729Z,67.77
2022-12-11T23:41:39.760Z,68.67
2022-12-11T23:44:06.579Z,69.02
2022-12-11T23:46:36.111Z,69.36
2022-12-11T23:49:04.199Z,68.64
2022-12-11T23:51:31.226Z,69.17
2022-12-11T23:53:58.149Z,69.11
2022-12-11T23:56:28.509Z,69.56
2022-12-11T23:58:58.999Z,68.73
